Latest Weather Observations for Cobar Airport

IDN60801

Issued at 9:35 pm EDT Wednesday 26 November 2014 (issued every 30 minutes, with the page automatically refreshed every 10 minutes)

About weather observations | Map of weather stations | Latest weather observations for NSW | Other Formats
Station Details ID: 048237 Name: COBAR AIRPORT AWS Lat: -31.54 Lon: 145.80 Height: 218.0 m
Data from the previous 72 hours. | See also: Recent months for locations in New South Wales
Date/Time
EDT
Temp
°C
App
Temp
°C
Dew
Point
Rel
Hum
%
Delta-T
°C
Wind Press
QNH
hPa
Press
MSL
hPa
Rain
since 9 am
mm
Dir
 
Spd
km/h
Gust
km/h
Spd
kts
Gust
kts
26/09:30pm 23.5 20.4 1.2 23 10.5 S 7 9 4 5 1017.5 1016.6 0.0
26/09:00pm 25.6 21.1 -0.5 18 12.1 S 13 17 7 9 1017.1 1016.2 0.0
26/08:30pm 26.8 21.8 -1.1 16 12.9 S 15 20 8 11 1016.9 1016.0 0.0
26/08:00pm 27.6 21.3 -1.3 15 13.4 S 22 28 12 15 1016.6 1015.7 0.0
26/07:30pm 28.6 22.5 -2.5 13 14.2 SSW 20 32 11 17 1016.2 1015.2 0.0
26/07:00pm 29.4 22.5 -2.9 12 14.7 SSW 24 30 13 16 1015.8 1014.8 0.0
26/06:30pm 29.6 22.7 -2.8 12 14.8 SW 24 32 13 17 1015.6 1014.6 0.0
26/06:00pm 30.0 24.7 -3.6 11 15.2 S 15 17 8 9 1015.6 1014.6 0.0
26/05:30pm 30.2 24.3 -2.3 12 15.1 SW 19 26 10 14 1015.6 1014.6 0.0
26/05:00pm 29.7 23.4 -3.9 11 15.1 S 20 30 11 16 1015.8 1014.8 0.0
26/04:30pm 30.2 24.5 -3.5 11 15.3 W 17 24 9 13 1015.9 1014.9 0.0
26/04:00pm 30.7 25.5 -3.1 11 15.5 S 15 26 8 14 1016.2 1015.2 0.0
26/03:30pm 29.6 22.6 -3.9 11 15.1 SSW 24 35 13 19 1016.4 1015.5 0.0
26/03:00pm 30.7 25.8 -3.1 11 15.5 SSW 13 26 7 14 1016.8 1015.9 0.0
26/02:30pm 29.5 23.4 -4.0 11 15.0 S 19 39 10 21 1017.2 1016.3 0.0
26/02:00pm 28.0 23.7 -5.2 11 14.4 S 9 20 5 11 1017.4 1016.5 0.0
26/01:30pm 28.8 22.6 -3.4 12 14.5 S 20 30 11 16 1017.7 1016.8 0.0
26/01:00pm 27.9 23.2 -2.0 14 13.7 SW 13 24 7 13 1018.1 1017.2 0.0
26/12:30pm 28.0 22.9 0.7 17 13.1 S 17 28 9 15 1018.5 1017.6 0.0
26/12:00pm 26.0 21.0 -0.9 17 12.4 SW 15 22 8 12 1018.9 1018.0 0.0
26/11:30am 25.2 21.1 0.0 19 11.7 SSW 11 20 6 11 1019.2 1018.3 0.0
26/11:00am 25.9 20.9 1.2 20 11.8 SSE 17 22 9 12 1019.3 1018.4 0.0
26/10:30am 24.8 20.5 1.0 21 11.3 SSE 13 24 7 13 1019.4 1018.5 0.0
26/10:00am 23.8 19.1 0.8 22 10.7 S 15 22 8 12 1019.7 1018.7 0.0
26/09:30am 22.6 17.6 1.6 25 9.9 SSE 17 20 9 11 1019.7 1018.7 0.0
26/09:00am 21.6 16.2 1.3 26 9.4 SSE 19 24 10 13 1019.9 1018.9 0.0
26/08:30am 20.6 15.0 1.5 28 8.8 ESE 20 22 11 12 1019.6 1018.6 0.0
26/08:00am 19.4 14.9 1.9 31 8.1 SE 15 20 8 11 1019.4 1018.5 0.0
26/07:30am 16.7 13.1 0.8 34 7.0 SE 9 17 5 9 1019.1 1018.2 0.0
26/07:00am 12.9 10.0 -1.1 38 5.7 SSE 4 7 2 4 1018.7 1017.8 0.0
26/06:30am 11.2 8.6 -1.5 41 5.1 SE 2 9 1 5 1018.5 1017.6 0.0
26/06:00am 10.7 7.3 -2.3 40 5.0 SSE 6 7 3 4 1018.3 1017.4 0.0
26/05:30am 11.0 8.7 -2.4 39 5.2 CALM 0 0 0 0 1018.1 1017.2 0.0
26/05:00am 11.5 9.2 -2.3 38 5.4 CALM 0 0 0 0 1017.9 1017.0 0.0
26/04:30am 12.8 10.6 -1.5 37 5.8 CALM 0 0 0 0 1017.9 1017.0 0.0
26/04:00am 13.2 10.9 -2.3 34 6.2 CALM 0 0 0 0 1017.9 1017.0 0.0
26/03:30am 13.5 10.9 -2.0 34 6.2 SSE 2 7 1 4 1017.9 1017.0 0.0
26/03:00am 15.5 12.0 -1.5 31 7.1 S 7 9 4 5 1017.9 1017.0 0.0
26/02:30am 16.2 12.3 -1.4 30 7.4 S 9 11 5 6 1018.0 1017.1 0.0
26/02:00am 16.7 12.4 -1.9 28 7.7 S 11 13 6 7 1018.3 1017.4 0.0
26/01:30am 17.8 13.5 -1.4 27 8.2 S 11 13 6 7 1018.4 1017.5 0.0
26/01:00am 18.3 13.6 -1.5 26 8.4 S 13 13 7 7 1018.8 1017.9 0.0
26/12:30am 19.5 14.8 -1.6 24 9.1 S 13 17 7 9 1019.1 1018.2 0.0
26/12:00am 20.1 14.7 -1.7 23 9.4 S 17 20 9 11 1019.3 1018.4 0.0
 
Date/Time
EDT
Temp
°C
App
Temp
°C
Dew
Point
Rel
Hum
%
Delta-T
°C
Wind Press
QNH
hPa
Press
MSL
hPa
Rain
since 9 am
mm
Dir
 
Spd
km/h
Gust
km/h
Spd
kts
Gust
kts
25/11:30pm 20.4 15.8 -1.4 23 9.5 S 13 15 7 8 1019.0 1018.1 0.0
25/11:00pm 21.4 16.4 -1.2 22 10.0 S 15 20 8 11 1018.9 1018.0 0.0
25/10:30pm 22.3 17.2 0.8 24 9.9 S 17 20 9 11 1018.8 1017.9 0.0
25/10:00pm 21.9 17.6 1.0 25 9.6 S 13 15 7 8 1018.5 1017.6 0.0
25/09:30pm 22.7 18.3 0.5 23 10.2 S 13 17 7 9 1018.1 1017.2 0.0
25/09:00pm 23.5 18.8 1.2 23 10.5 SSW 15 19 8 10 1017.8 1016.9 0.0
25/08:30pm 24.6 19.9 0.8 21 11.2 S 15 19 8 10 1017.5 1016.6 0.0
25/08:00pm 25.5 20.3 0.2 19 11.8 S 17 20 9 11 1017.3 1016.4 0.0
25/07:30pm 26.4 20.5 -0.6 17 12.6 S 20 24 11 13 1016.9 1016.0 0.0
25/07:00pm 27.1 22.5 -0.9 16 13.0 SSE 13 17 7 9 1016.6 1015.7 0.0
25/06:30pm 27.5 21.5 -1.4 15 13.4 SSW 20 30 11 16 1016.4 1015.5 0.0
25/06:00pm 27.6 21.8 -1.3 15 13.4 S 19 30 10 16 1016.4 1015.5 0.0
25/05:30pm 27.5 21.7 -1.4 15 13.4 S 19 28 10 15 1016.5 1015.6 0.0
25/05:00pm 27.4 21.3 -2.4 14 13.5 SSW 20 28 11 15 1016.6 1015.7 0.0
25/04:30pm 27.8 21.7 -2.1 14 13.7 SSW 20 28 11 15 1016.7 1015.8 0.0
25/04:00pm 27.4 23.1 -1.5 15 13.3 SSE 11 15 6 8 1017.0 1016.1 0.0
25/03:30pm 28.3 23.9 0.1 16 13.5 SE 13 20 7 11 1017.1 1016.2 0.0
25/03:00pm 27.0 20.4 -0.1 17 12.7 S 24 32 13 17 1017.5 1016.6 0.0
25/02:30pm 26.3 19.7 -0.7 17 12.5 S 24 35 13 19 1017.9 1017.0 0.0
25/02:00pm 25.4 20.1 -0.6 18 12.0 SW 17 24 9 13 1018.1 1017.2 0.0
25/01:30pm 24.5 19.3 0.1 20 11.3 S 17 32 9 17 1018.5 1017.6 0.0
25/01:00pm 24.3 20.4 3.6 26 10.2 S 13 24 7 13 1018.7 1017.8 0.0
25/12:30pm 23.5 19.1 4.5 29 9.5 S 17 24 9 13 1018.9 1018.0 0.0
25/12:00pm 22.3 18.2 4.4 31 8.8 S 15 22 8 12 1019.0 1018.1 0.0
25/11:30am 22.0 17.9 4.1 31 8.8 S 15 22 8 12 1019.3 1018.4 0.0
25/11:00am 21.2 16.3 5.1 35 8.0 S 20 28 11 15 1019.4 1018.5 0.0
25/10:30am 19.9 15.7 5.9 40 7.0 S 17 26 9 14 1019.6 1018.6 0.0
25/10:00am 19.3 15.2 8.0 48 5.9 S 19 28 10 15 1019.4 1018.5 0.0
25/09:30am 18.1 14.0 8.7 54 4.9 S 20 30 11 16 1019.3 1018.4 0.0
25/09:00am 17.7 13.5 8.3 54 4.9 S 20 28 11 15 1019.2 1018.3 0.0
25/08:30am 17.6 13.8 9.0 57 4.5 S 19 24 10 13 1018.8 1017.9 0.0
25/08:00am 17.2 12.7 8.6 57 4.5 S 22 32 12 17 1018.3 1017.4 0.0
25/07:30am 17.0 12.2 8.7 58 4.3 SSW 24 32 13 17 1017.7 1016.8 0.0
25/07:00am 17.1 13.1 9.0 59 4.2 S 20 28 11 15 1017.2 1016.3 0.0
25/06:30am 17.3 13.0 9.5 60 4.1 S 22 30 12 16 1016.7 1015.8 0.0
25/06:00am 17.6 11.8 9.5 59 4.3 S 30 41 16 22 1016.1 1015.1 0.0
25/05:30am 18.1 12.8 8.4 53 5.0 SSW 26 37 14 20 1015.5 1014.5 0.0
25/05:00am 18.7 11.9 7.5 48 5.7 S 33 46 18 25 1015.2 1014.2 0.0
25/04:30am 19.5 14.0 10.5 56 4.9 SSW 30 43 16 23 1015.0 1014.0 0.0
25/04:00am 19.7 15.3 12.9 65 3.9 SSW 28 37 15 20 1014.4 1013.5 0.0
25/03:30am 20.6 15.8 14.0 66 3.9 SSW 32 43 17 23 1014.2 1013.3 0.0
25/03:00am 21.5 19.1 16.5 73 3.1 S 24 33 13 18 1013.1 1012.2 0.0
25/02:30am 21.5 20.1 17.1 76 2.7 SSW 20 32 11 17 1013.1 1012.2 0.0
25/02:00am 21.8 20.6 17.6 77 2.6 SSW 20 28 11 15 1013.5 1012.6 0.0
25/01:30am 22.1 20.7 17.0 73 3.2 SW 20 28 11 15 1013.5 1012.6 0.0
25/01:00am 22.3 22.1 16.6 70 3.5 SSE 13 17 7 9 1012.3 1011.3 0.0
25/12:30am 22.4 22.0 16.2 68 3.8 W 13 19 7 10 1014.1 1013.2 0.0
25/12:00am 22.9 22.4 16.0 65 4.2 W 13 20 7 11 1014.3 1013.4 0.0
 
Date/Time
EDT
Temp
°C
App
Temp
°C
Dew
Point
Rel
Hum
%
Delta-T
°C
Wind Press
QNH
hPa
Press
MSL
hPa
Rain
since 9 am
mm
Dir
 
Spd
km/h
Gust
km/h
Spd
kts
Gust
kts
24/11:30pm 23.6 21.0 14.9 58 5.2 WSW 22 32 12 17 1014.2 1013.3 0.0
24/11:00pm 24.9 22.0 15.0 54 6.0 SW 24 30 13 16 1014.4 1013.5 0.0
24/10:30pm 25.8 22.4 13.6 47 7.2 S 24 35 13 19 1013.2 1012.3 0.0
24/10:09pm 27.2 23.0 13.5 42 8.2 SSW 28 46 15 25 1012.7 1011.8 0.0
24/10:02pm 28.4 23.1 14.3 42 8.6 WSW 35 48 19 26 1012.2 1011.2 0.0
24/10:00pm 29.2 28.0 15.0 42 8.7 WNW 15 30 8 16 1012.0 1011.0 0.0
24/09:30pm 29.3 27.2 14.7 41 8.9 NW 19 24 10 13 1011.3 1010.3 0.0
24/09:00pm 29.5 27.3 14.5 40 9.2 NW 19 30 10 16 1011.1 1010.1 0.0
24/08:30pm 29.7 27.0 14.7 40 9.2 NW 22 30 12 16 1010.9 1009.9 0.0
24/08:00pm 29.9 27.7 14.8 39 9.3 NNW 20 26 11 14 1010.7 1009.7 0.0
24/07:30pm 30.3 27.2 14.4 38 9.7 NNW 24 35 13 19 1010.1 1009.1 0.0
24/07:00pm 30.4 26.8 14.1 37 9.9 NNW 26 39 14 21 1010.0 1009.0 0.0
24/06:30pm 30.6 26.7 13.4 35 10.4 NW 26 37 14 20 1009.5 1008.6 0.0
24/06:00pm 31.1 26.6 13.8 34 10.5 NW 30 44 16 24 1009.2 1008.3 0.0
24/05:30pm 31.4 28.5 14.1 35 10.6 NW 22 32 12 17 1009.1 1008.2 0.0
24/05:00pm 31.2 27.9 13.9 35 10.6 NW 24 35 13 19 1009.1 1008.2 0.0
24/04:30pm 30.9 26.8 13.7 35 10.4 NW 28 37 15 20 1009.3 1008.4 0.0
24/04:00pm 30.9 27.9 13.7 35 10.5 NW 22 28 12 15 1009.7 1008.8 0.0
24/03:30pm 30.4 28.1 14.1 37 9.9 NW 19 26 10 14 1010.7 1009.7 0.0
24/03:00pm 29.3 25.6 15.1 42 8.8 WNW 28 37 15 20 1011.2 1010.2 0.0
24/02:30pm 32.9 29.2 11.4 27 12.7 W 22 35 12 19 1010.6 1009.6 0.0
24/02:00pm 33.3 29.5 11.2 26 13.0 NW 22 32 12 17 1010.6 1009.6 0.0
24/01:30pm 34.3 31.7 10.8 24 13.8 WNW 15 22 8 12 1010.8 1009.8 0.0
24/01:00pm 33.8 31.3 9.8 23 13.9 WNW 13 17 7 9 1010.7 1009.7 0.0
24/12:30pm 33.4 31.2 9.4 23 13.8 SW 11 19 6 10 1010.8 1009.8 0.0
24/12:00pm 33.0 31.3 9.7 24 13.4 SW 9 19 5 10 1011.1 1010.1 0.0
24/11:30am 32.4 31.2 10.4 26 12.8 SSW 7 15 4 8 1011.5 1010.5 0.0
24/11:00am 31.2 30.1 10.0 27 12.2 SW 6 11 3 6 1011.8 1010.8 0.0
24/10:30am 30.7 28.8 10.6 29 11.6 SSW 11 13 6 7 1012.0 1011.0 0.0
24/10:00am 30.6 28.3 10.5 29 11.6 S 13 17 7 9 1011.6 1010.6 0.0
24/09:30am 30.1 28.2 10.6 30 11.2 S 11 17 6 9 1012.1 1011.1 0.0
24/09:00am 29.9 27.8 9.9 29 11.4 S 11 15 6 8 1011.9 1010.9 0.4
24/08:30am 29.4 26.8 9.5 29 11.2 S 13 19 7 10 1011.5 1010.5 0.4
24/08:00am 29.3 25.8 8.9 28 11.4 S 17 22 9 12 1011.4 1010.4 0.4
24/07:30am 29.1 26.5 9.3 29 11.1 S 13 15 7 8 1011.4 1010.4 0.4
24/07:00am 28.6 25.6 9.3 30 10.8 S 15 19 8 10 1011.1 1010.1 0.4
24/06:30am 28.3 24.4 9.6 31 10.5 SSW 20 28 11 15 1011.2 1010.2 0.4
24/06:00am 28.2 25.5 10.4 33 10.1 SSW 15 19 8 10 1010.4 1009.4 0.4
24/05:30am 28.0 26.5 10.7 34 9.9 S 9 13 5 7 1010.2 1009.2 0.4
24/05:00am 28.4 27.0 11.0 34 10.0 SSE 9 13 5 7 1009.9 1008.9 0.4
24/04:30am 28.9 27.5 11.0 33 10.3 SE 9 13 5 7 1010.2 1009.2 0.4
24/04:00am 29.1 27.4 11.2 33 10.4 ESE 11 15 6 8 1010.3 1009.3 0.4
24/03:30am 29.1 27.8 11.2 33 10.4 S 9 13 5 7 1011.0 1010.0 0.4
24/03:00am 29.9 29.2 11.4 32 10.8 SSE 6 9 3 5 1011.7 1010.7 0.4
24/02:30am 30.6 29.8 11.1 30 11.4 SE 6 9 3 5 1011.1 1010.1 0.4
24/02:00am 31.1 29.3 11.0 29 11.7 SSE 11 15 6 8 1011.1 1010.1 0.4
24/01:30am 31.6 28.4 11.4 29 11.9 SSE 19 28 10 15 1011.1 1010.1 0.4
24/01:00am 32.1 28.3 11.3 28 12.2 SSE 22 32 12 17 1011.1 1010.1 0.4
24/12:30am 32.5 27.2 11.1 27 12.6 SSE 30 41 16 22 1010.9 1009.9 0.4
24/12:00am 33.0 27.6 10.9 26 13.0 S 30 39 16 21 1010.9 1009.9 0.4
 
Date/Time
EDT
Temp
°C
App
Temp
°C
Dew
Point
Rel
Hum
%
Delta-T
°C
Wind Press
QNH
hPa
Press
MSL
hPa
Rain
since 9 am
mm
Dir
 
Spd
km/h
Gust
km/h
Spd
kts
Gust
kts
23/11:30pm 33.1 29.3 11.0 26 13.0 S 22 32 12 17 1011.1 1010.1 0.4
23/11:00pm 33.2 30.9 10.5 25 13.3 S 13 17 7 9 1011.3 1010.3 0.4
23/10:30pm 33.6 30.9 10.2 24 13.6 SSW 15 19 8 10 1011.6 1010.6 0.4
23/10:00pm 33.8 32.3 10.4 24 13.7 SSE 9 13 5 7 1011.8 1010.8 0.4

Other Formats:

Comma delimited format used in spreadsheet applications
http://www.bom.gov.au/fwo/IDN60801/IDN60801.94710.axf

JavaScript Object Notation format (JSON) in row-major order
http://www.bom.gov.au/fwo/IDN60801/IDN60801.94710.json